Tuxedo, North Carolina
Current Conditions -  °F | °C
As of 12:54 AM on Saturday 29 Nov 2014 (Local Time) from KAVL Reporting Station
Clear Clear  
Wind Chill: 22°   Ceiling: Unl
Heat Index: 27°   Visibility: 10mi
Dew Point: 22°   Wind: 5mph
Humidity: 81%   Direction: 340°NNW
Pressure: 30.22"   Gusts: NA
Location:  35.23°N, 82.43°W
Report Text: KAVL 290554Z AUTO 34004KT 10SM CLR M03/M06 A3022 RMK AO2 SLP243 T10281056 10011 21028 56005
Loading
Personal Weather Stations






























Interactive Weather Map New forecast layout! Learn more

10-Day Weather Forecast

Advertisements
Track Severe Weather on mobile